Time;durP1;ratioP1;P1;durP2;ratioP2;P2;SDS_P1;SDS_P2;PMS_P1;PMS_P2;Temp;Humidity;BMP_temperature;BMP_pressure;BME280_temperature;BME280_humidity;BME280_pressure;Samples;Min_cycle;Max_cycle;Signal;HPM_P1;HPM_P2
2023/03/13 00:01:36;;;;;;;12.63;2.23;;;13.30;99.90;;;;;;5009283;28;20716;-75
2023/03/13 00:04:02;;;;;;;7.67;1.97;;;13.30;99.90;;;;;;5012199;28;20585;-76
2023/03/13 00:06:31;;;;;;;10.33;2.30;;;13.30;99.90;;;;;;5013325;28;20732;-76
2023/03/13 00:08:59;;;;;;;6.50;1.60;;;13.30;99.90;;;;;;5013757;28;20166;-76
2023/03/13 00:11:26;;;;;;;10.07;2.27;;;13.40;99.90;;;;;;5012916;28;20600;-76
2023/03/13 00:13:56;;;;;;;6.97;1.60;;;13.40;99.90;;;;;;5013429;28;20576;-76
2023/03/13 00:16:22;;;;;;;12.10;3.00;;;13.40;99.90;;;;;;5005208;28;20608;-76
2023/03/13 00:18:51;;;;;;;10.60;1.80;;;13.40;99.90;;;;;;4993879;28;20924;-76
2023/03/13 00:21:18;;;;;;;7.83;2.03;;;13.40;99.90;;;;;;4992947;28;20618;-76
2023/03/13 00:23:45;;;;;;;11.17;2.60;;;13.40;99.90;;;;;;4993615;28;20582;-76
2023/03/13 00:26:16;;;;;;;10.20;2.30;;;13.40;99.90;;;;;;4992358;28;20685;-75
2023/03/13 00:28:42;;;;;;;8.93;1.83;;;13.40;99.90;;;;;;4960501;28;20600;-75
2023/03/13 00:31:25;;;;;;;6.80;1.43;;;13.40;99.90;;;;;;4992228;28;20614;-76
2023/03/13 00:33:54;;;;;;;10.03;2.70;;;13.30;99.90;;;;;;4975651;28;20621;-76
2023/03/13 00:36:23;;;;;;;7.80;2.33;;;13.40;99.90;;;;;;4992401;28;20672;-76
2023/03/13 00:38:50;;;;;;;6.10;1.87;;;13.40;99.90;;;;;;4993177;28;20685;-76
2023/03/13 00:41:18;;;;;;;7.57;2.77;;;13.40;99.90;;;;;;4992047;28;20610;-76
2023/03/13 00:43:45;;;;;;;7.60;2.00;;;13.40;99.90;;;;;;4992866;28;20921;-76
2023/03/13 00:46:12;;;;;;;6.40;2.20;;;13.40;99.90;;;;;;4992147;28;21208;-76
2023/03/13 00:48:38;;;;;;;8.18;2.22;;;13.40;99.90;;;;;;5008035;28;20579;-76
2023/03/13 00:51:04;;;;;;;8.30;1.70;;;13.40;99.90;;;;;;4993035;28;20781;-76
2023/03/13 00:53:31;;;;;;;11.17;2.40;;;13.40;99.90;;;;;;4992068;28;20269;-76
2023/03/13 00:56:05;;;;;;;7.90;1.60;;;13.40;99.90;;;;;;5003221;28;21218;-76
2023/03/13 00:58:36;;;;;;;6.20;2.10;;;13.40;99.90;;;;;;5011463;28;20603;-76
2023/03/13 01:01:27;;;;;;;7.13;1.57;;;13.30;99.90;;;;;;5010996;28;20727;-76
2023/03/13 01:03:59;;;;;;;8.50;2.20;;;13.30;99.90;;;;;;5006825;28;20589;-76
2023/03/13 01:06:28;;;;;;;9.77;2.50;;;13.30;99.90;;;;;;4994861;28;20679;-76
2023/03/13 01:08:57;;;;;;;6.03;1.60;;;13.30;99.90;;;;;;5012534;28;20581;-76
2023/03/13 01:11:29;;;;;;;6.70;1.73;;;13.30;99.90;;;;;;5011938;28;20613;-76
2023/03/13 01:14:00;;;;;;;5.50;1.77;;;13.30;99.90;;;;;;5011067;28;20577;-76
2023/03/13 01:16:29;;;;;;;5.88;1.45;;;13.40;99.90;;;;;;4985630;28;21018;-76
2023/03/13 01:18:59;;;;;;;9.67;2.03;;;13.40;99.90;;;;;;4992859;28;20205;-76
2023/03/13 01:21:27;;;;;;;9.97;1.73;;;13.40;99.90;;;;;;4974468;28;20610;-76
2023/03/13 01:23:53;;;;;;;7.30;1.60;;;13.40;99.90;;;;;;4991199;28;20582;-75
2023/03/13 01:26:19;;;;;;;6.23;1.67;;;13.50;99.90;;;;;;4992413;28;20751;-76
2023/03/13 01:28:45;;;;;;;7.13;2.20;;;13.50;99.90;;;;;;4991495;28;20653;-76
2023/03/13 01:31:21;;;;;;;6.70;2.10;;;13.50;99.90;;;;;;4990558;28;20610;-76
2023/03/13 01:33:49;;;;;;;8.80;2.13;;;13.50;99.90;;;;;;4991346;28;20582;-76
2023/03/13 01:36:16;;;;;;;5.00;1.40;;;13.60;99.90;;;;;;4991953;28;20996;-76
2023/03/13 01:38:42;;;;;;;11.17;2.80;;;13.60;99.90;;;;;;4991260;28;21027;-75
2023/03/13 01:41:10;;;;;;;11.00;1.97;;;13.60;99.90;;;;;;4990971;28;20713;-76
2023/03/13 01:43:36;;;;;;;6.80;1.63;;;13.70;99.90;;;;;;4990428;28;20578;-76
2023/03/13 01:46:23;;;;;;;9.30;1.60;;;13.70;99.90;;;;;;4991008;28;20629;-76
2023/03/13 01:49:04;;;;;;;5.50;1.20;;;13.80;99.90;;;;;;4992016;28;20574;-76
2023/03/13 01:51:49;;;;;;;6.33;1.77;;;13.80;99.90;;;;;;4996133;28;20614;-76
2023/03/13 01:54:34;;;;;;;6.30;1.33;;;13.80;99.90;;;;;;5010024;28;20944;-76
2023/03/13 01:57:15;;;;;;;4.30;1.20;;;13.90;99.90;;;;;;4994318;28;20582;-76
2023/03/13 01:59:51;;;;;;;4.63;1.07;;;13.90;99.90;;;;;;5010025;28;20608;-76
2023/03/13 02:02:17;;;;;;;9.33;1.87;;;14.00;99.90;;;;;;4969855;28;20642;-76
2023/03/13 02:05:04;;;;;;;4.70;1.00;;;14.00;99.90;;;;;;4983163;28;20708;-76
2023/03/13 02:07:41;;;;;;;8.80;1.30;;;14.00;99.90;;;;;;4974680;28;20577;-75
2023/03/13 02:10:09;;;;;;;4.60;1.77;;;14.10;99.90;;;;;;4991139;28;20589;-76
2023/03/13 02:12:38;;;;;;;3.40;1.13;;;14.10;99.90;;;;;;4967872;28;20785;-76
2023/03/13 02:15:11;;;;;;;6.93;1.23;;;14.00;99.90;;;;;;4993045;28;20586;-75
2023/03/13 02:17:39;;;;;;;4.50;1.00;;;14.10;99.90;;;;;;4973951;28;20677;-76
2023/03/13 02:20:05;;;;;;;6.63;1.80;;;14.10;99.90;;;;;;4989816;28;20650;-76
2023/03/13 02:22:47;;;;;;;5.33;1.57;;;14.10;99.90;;;;;;4990041;28;20700;-76
2023/03/13 02:25:35;;;;;;;4.67;0.97;;;14.10;99.90;;;;;;4990092;28;20645;-76
2023/03/13 02:28:05;;;;;;;3.17;0.80;;;14.10;99.90;;;;;;4990425;28;21355;-76
2023/03/13 02:30:34;;;;;;;2.60;0.80;;;14.10;99.90;;;;;;4984208;28;20954;-76
2023/03/13 02:33:01;;;;;;;2.60;0.90;;;14.10;99.90;;;;;;4989969;28;20676;-76
2023/03/13 02:35:28;;;;;;;2.50;0.80;;;14.00;99.90;;;;;;4990141;28;20643;-76
2023/03/13 02:37:58;;;;;;;3.83;1.13;;;13.90;99.90;;;;;;4990505;28;21051;-76
2023/03/13 02:40:29;;;;;;;6.13;0.80;;;13.90;99.90;;;;;;4990618;28;20575;-76
2023/03/13 02:42:59;;;;;;;2.30;0.80;;;13.80;99.90;;;;;;4989724;28;20730;-76
2023/03/13 02:45:25;;;;;;;4.83;0.70;;;13.80;99.90;;;;;;4990039;28;20214;-76
2023/03/13 02:47:50;;;;;;;2.43;0.80;;;13.70;99.90;;;;;;4973757;28;20669;-76
2023/03/13 02:50:17;;;;;;;2.80;0.70;;;13.60;99.90;;;;;;4990370;28;20729;-77
2023/03/13 02:52:47;;;;;;;2.30;0.90;;;13.50;99.90;;;;;;4989333;28;20337;-77
2023/03/13 02:55:17;;;;;;;2.73;0.70;;;13.40;99.90;;;;;;4990230;28;20605;-76
2023/03/13 02:57:44;;;;;;;1.80;0.70;;;13.30;99.90;;;;;;4989994;28;20645;-77
2023/03/13 03:00:15;;;;;;;2.97;0.60;;;13.20;99.90;;;;;;4974342;28;20633;-77
2023/03/13 03:02:42;;;;;;;3.40;0.60;;;13.20;99.90;;;;;;4989432;28;20708;-76
2023/03/13 03:05:09;;;;;;;3.47;0.70;;;13.10;99.90;;;;;;4973837;28;20686;-76
2023/03/13 03:07:34;;;;;;;2.50;0.60;;;13.10;99.90;;;;;;4989687;28;20652;-76
2023/03/13 03:10:01;;;;;;;2.53;0.60;;;13.10;99.90;;;;;;4991289;28;21121;-76
2023/03/13 03:12:26;;;;;;;2.17;0.97;;;13.00;99.90;;;;;;4973417;28;20606;-76
2023/03/13 03:14:52;;;;;;;1.57;0.83;;;13.00;99.90;;;;;;4973545;28;20586;-76
2023/03/13 03:17:19;;;;;;;1.80;0.60;;;13.00;99.90;;;;;;4973208;28;20233;-76
2023/03/13 03:19:44;;;;;;;2.53;0.93;;;13.00;99.90;;;;;;4990575;28;21187;-76
2023/03/13 03:22:10;;;;;;;1.20;0.50;;;13.00;99.90;;;;;;5000113;28;20183;-76
2023/03/13 03:24:36;;;;;;;4.60;0.57;;;13.00;99.90;;;;;;4990867;28;20186;-76
2023/03/13 03:27:03;;;;;;;2.20;0.57;;;13.10;99.90;;;;;;4993017;28;20214;-76
2023/03/13 03:29:35;;;;;;;2.17;0.60;;;13.10;99.90;;;;;;4993196;28;20590;-76
2023/03/13 03:32:01;;;;;;;1.20;0.40;;;13.10;99.90;;;;;;4993355;28;20602;-76
2023/03/13 03:34:27;;;;;;;1.30;0.50;;;13.10;99.90;;;;;;4993183;28;20171;-77
2023/03/13 03:36:55;;;;;;;1.10;0.53;;;13.10;99.90;;;;;;4993535;28;20618;-76
2023/03/13 03:39:20;;;;;;;1.50;0.50;;;13.20;99.90;;;;;;4994579;28;20613;-76
2023/03/13 03:41:46;;;;;;;1.37;0.47;;;13.20;99.90;;;;;;4992668;28;20191;-76
2023/03/13 03:44:12;;;;;;;1.23;0.40;;;13.20;99.90;;;;;;4993383;28;20594;-76
2023/03/13 03:46:49;;;;;;;3.57;0.70;;;13.30;99.90;;;;;;4978094;28;20648;-76
2023/03/13 03:49:15;;;;;;;1.40;0.50;;;13.30;99.90;;;;;;4993171;28;20674;-76
2023/03/13 03:51:41;;;;;;;1.90;0.50;;;13.30;99.90;;;;;;4976073;28;20709;-76
2023/03/13 03:54:07;;;;;;;1.10;0.40;;;13.30;99.90;;;;;;4993125;28;20527;-76
2023/03/13 03:56:33;;;;;;;1.40;0.40;;;13.40;99.90;;;;;;4976458;28;20171;-76
2023/03/13 03:59:00;;;;;;;1.20;0.40;;;13.40;99.90;;;;;;4993164;28;20602;-76
2023/03/13 04:01:45;;;;;;;1.10;0.40;;;13.40;99.90;;;;;;4992065;28;20733;-76
2023/03/13 04:04:13;;;;;;;1.40;0.47;;;13.50;99.90;;;;;;4992917;28;20625;-76
2023/03/13 04:06:41;;;;;;;2.70;0.87;;;13.50;99.90;;;;;;4992479;28;20668;-76
2023/03/13 04:09:08;;;;;;;1.63;0.60;;;13.50;99.90;;;;;;4992864;28;20725;-76
2023/03/13 04:11:36;;;;;;;1.20;0.47;;;13.50;99.90;;;;;;4992285;28;20613;-76
2023/03/13 04:14:02;;;;;;;1.20;0.57;;;13.60;99.90;;;;;;4992316;28;20597;-76
2023/03/13 04:16:28;;;;;;;1.50;0.50;;;13.60;99.90;;;;;;4992541;28;20648;-76
2023/03/13 04:18:55;;;;;;;1.10;0.43;;;13.70;99.90;;;;;;5003377;28;20577;-76
2023/03/13 04:21:21;;;;;;;2.00;0.50;;;13.70;99.90;;;;;;4994876;28;20716;-76
2023/03/13 04:23:55;;;;;;;2.03;0.40;;;13.80;99.90;;;;;;4992300;28;20622;-76
2023/03/13 04:26:22;;;;;;;2.17;0.50;;;13.80;99.90;;;;;;4992527;28;20637;-76
2023/03/13 04:28:50;;;;;;;1.60;0.50;;;13.90;99.90;;;;;;4992225;28;20933;-76
2023/03/13 04:31:21;;;;;;;1.20;0.50;;;13.90;99.90;;;;;;4976049;28;20610;-76
2023/03/13 04:34:09;;;;;;;2.80;0.40;;;13.90;99.90;;;;;;4981604;28;20590;-76
2023/03/13 04:36:59;;;;;;;1.80;0.50;;;14.00;99.90;;;;;;4991617;28;20591;-76
2023/03/13 04:39:43;;;;;;;1.10;0.47;;;14.00;99.90;;;;;;4993608;28;20583;-76
2023/03/13 04:42:33;;;;;;;1.30;0.50;;;14.00;99.90;;;;;;4991785;28;20606;-76
2023/03/13 04:45:12;;;;;;;1.40;0.40;;;14.10;99.90;;;;;;4975640;28;20634;-76
2023/03/13 04:48:10;;;;;;;1.60;0.50;;;14.00;99.90;;;;;;4949454;28;20605;-75
2023/03/13 04:51:09;;;;;;;1.60;0.50;;;14.10;99.90;;;;;;4974279;28;20648;-76
2023/03/13 04:53:48;;;;;;;1.20;0.50;;;14.10;99.90;;;;;;4977344;28;20702;-76
2023/03/13 04:56:32;;;;;;;1.20;0.40;;;14.10;99.90;;;;;;4977694;28;20582;-75
2023/03/13 04:59:16;;;;;;;1.50;0.50;;;14.10;99.90;;;;;;4991914;28;20609;-76
2023/03/13 05:02:02;;;;;;;1.57;0.50;;;14.20;99.90;;;;;;4991681;28;20648;-76
2023/03/13 05:04:41;;;;;;;1.10;0.40;;;14.20;99.90;;;;;;4991867;28;20637;-76
2023/03/13 05:07:42;;;;;;;1.20;0.40;;;14.20;99.90;;;;;;4916873;29;20592;-76
2023/03/13 05:10:26;;;;;;;1.00;0.40;;;14.20;99.90;;;;;;4973231;28;20590;-76
2023/03/13 05:13:09;;;;;;;1.10;0.40;;;14.30;99.90;;;;;;4996006;28;20958;-76
2023/03/13 05:15:53;;;;;;;1.13;0.50;;;14.30;99.90;;;;;;5012546;28;21058;-76
2023/03/13 05:18:32;;;;;;;1.10;0.40;;;14.30;99.90;;;;;;5011209;28;20589;-76
2023/03/13 05:21:06;;;;;;;1.83;0.50;;;14.40;99.90;;;;;;4964864;28;20696;-76
2023/03/13 05:23:55;;;;;;;1.50;0.43;;;14.40;99.90;;;;;;4962169;28;20613;-76
2023/03/13 05:26:50;;;;;;;1.10;0.40;;;14.50;99.90;;;;;;4922995;28;21309;-76
2023/03/13 05:29:28;;;;;;;1.80;0.50;;;14.50;99.90;;;;;;4991206;28;20688;-76
2023/03/13 05:32:03;;;;;;;1.50;0.50;;;14.50;99.90;;;;;;4990610;28;20664;-77
2023/03/13 05:34:49;;;;;;;1.10;0.40;;;14.60;99.90;;;;;;4951668;28;20681;-76
2023/03/13 05:37:33;;;;;;;1.30;0.50;;;14.70;99.90;;;;;;4992061;28;20631;-76
2023/03/13 05:40:17;;;;;;;1.30;0.47;;;14.70;99.90;;;;;;4991234;28;20922;-76
2023/03/13 05:43:02;;;;;;;2.37;0.80;;;14.70;99.90;;;;;;4990367;28;20665;-76
2023/03/13 05:45:43;;;;;;;2.90;0.50;;;14.80;99.90;;;;;;5014904;23;20637;-72
2023/03/13 05:48:31;;;;;;;2.40;0.50;;;14.80;99.90;;;;;;5004702;28;20609;-72
2023/03/13 05:51:04;;;;;;;2.70;0.60;;;14.80;99.90;;;;;;4994378;28;20592;-72
2023/03/13 05:53:47;;;;;;;2.00;0.63;;;14.80;99.90;;;;;;5010225;28;20584;-72
2023/03/13 05:56:31;;;;;;;1.20;0.50;;;14.90;99.90;;;;;;5011946;28;20612;-72
2023/03/13 05:59:11;;;;;;;1.30;0.60;;;14.90;99.90;;;;;;5010128;28;20592;-72
2023/03/13 06:01:54;;;;;;;1.30;0.53;;;14.90;99.90;;;;;;4980042;28;20581;-72
2023/03/13 06:04:46;;;;;;;1.20;0.50;;;14.90;99.90;;;;;;5008026;28;21192;-72
2023/03/13 06:07:12;;;;;;;1.87;0.80;;;14.90;99.90;;;;;;4994093;28;20759;-72
2023/03/13 06:09:39;;;;;;;1.30;0.60;;;15.00;99.90;;;;;;5009601;28;20601;-72
2023/03/13 06:12:10;;;;;;;1.17;0.50;;;15.00;99.90;;;;;;5009884;28;20585;-72
2023/03/13 06:14:36;;;;;;;1.50;0.60;;;15.00;99.90;;;;;;5027143;28;20632;-72
2023/03/13 06:17:24;;;;;;;2.47;1.17;;;15.10;99.90;;;;;;5010615;28;21041;-71
2023/03/13 06:19:50;;;;;;;1.90;0.70;;;15.10;99.90;;;;;;5011561;28;20620;-72
2023/03/13 06:22:16;;;;;;;1.37;0.70;;;15.10;99.90;;;;;;5009635;28;20679;-72
2023/03/13 06:24:43;;;;;;;1.80;0.77;;;15.20;99.90;;;;;;5010108;28;20585;-72
2023/03/13 06:27:09;;;;;;;1.90;1.00;;;15.20;99.90;;;;;;5009546;28;20684;-73
2023/03/13 06:29:35;;;;;;;2.17;0.93;;;15.30;99.90;;;;;;5010141;28;20672;-73
2023/03/13 06:32:01;;;;;;;1.70;0.90;;;15.30;99.90;;;;;;5009060;28;20680;-73
2023/03/13 06:34:26;;;;;;;2.67;0.90;;;15.30;99.90;;;;;;5011376;28;20201;-73
2023/03/13 06:36:52;;;;;;;1.60;0.90;;;15.40;99.90;;;;;;5010870;28;20194;-73
2023/03/13 06:39:18;;;;;;;2.37;0.80;;;15.40;99.90;;;;;;5010042;28;20181;-72
2023/03/13 06:41:43;;;;;;;1.97;1.00;;;15.40;99.90;;;;;;5009172;28;20269;-72
2023/03/13 06:44:09;;;;;;;1.47;0.70;;;15.50;99.90;;;;;;5009816;28;20174;-73
2023/03/13 06:46:35;;;;;;;1.73;0.90;;;15.50;99.90;;;;;;5009626;28;20210;-73
2023/03/13 06:49:03;;;;;;;1.70;0.77;;;15.50;99.90;;;;;;5009450;28;20170;-73
2023/03/13 06:51:29;;;;;;;1.27;0.60;;;15.60;99.90;;;;;;5026175;28;20178;-73
2023/03/13 06:53:55;;;;;;;1.30;0.60;;;15.60;99.90;;;;;;5010475;28;20976;-73
2023/03/13 06:56:20;;;;;;;1.20;0.60;;;15.60;99.90;;;;;;5009751;28;20621;-73
2023/03/13 06:58:47;;;;;;;1.10;0.50;;;15.70;99.90;;;;;;5010622;28;20209;-73
2023/03/13 07:01:14;;;;;;;1.30;0.70;;;15.70;99.90;;;;;;5011023;28;20178;-73
2023/03/13 07:03:40;;;;;;;1.20;0.60;;;15.70;99.90;;;;;;5012331;28;20589;-73
2023/03/13 07:06:08;;;;;;;1.30;0.70;;;15.80;99.90;;;;;;5008160;28;20806;-73
2023/03/13 07:08:34;;;;;;;1.50;0.90;;;15.80;99.90;;;;;;5013214;28;20915;-73
2023/03/13 07:11:03;;;;;;;1.30;0.67;;;15.80;99.90;;;;;;5013408;28;20676;-73
2023/03/13 07:13:29;;;;;;;2.13;0.70;;;15.90;99.90;;;;;;5012139;28;20672;-74
2023/03/13 07:15:58;;;;;;;1.57;0.70;;;15.90;99.90;;;;;;5013898;28;20581;-74
2023/03/13 07:18:24;;;;;;;1.40;0.63;;;15.90;99.90;;;;;;5014558;28;20584;-73
2023/03/13 07:20:55;;;;;;;3.60;0.80;;;15.90;99.90;;;;;;5012457;28;21172;-73
2023/03/13 07:23:22;;;;;;;1.97;0.80;;;16.00;99.90;;;;;;5012649;28;20185;-73
2023/03/13 07:25:55;;;;;;;1.80;0.80;;;16.00;99.90;;;;;;5029128;28;20675;-73
2023/03/13 07:28:22;;;;;;;4.03;0.73;;;16.00;99.90;;;;;;5014483;28;20651;-73
2023/03/13 07:30:48;;;;;;;1.93;0.80;;;16.00;99.90;;;;;;4996495;28;20589;-73
2023/03/13 07:33:14;;;;;;;5.00;1.00;;;16.10;99.90;;;;;;5014050;28;20569;-73
2023/03/13 07:35:40;;;;;;;1.50;0.90;;;16.10;99.90;;;;;;5013006;28;20619;-73
2023/03/13 07:38:06;;;;;;;1.70;1.00;;;16.10;99.90;;;;;;5013836;28;20601;-73
2023/03/13 07:40:31;;;;;;;3.47;1.10;;;16.10;99.90;;;;;;5014417;28;20185;-73
2023/03/13 07:42:57;;;;;;;2.97;1.00;;;16.10;99.90;;;;;;5012115;28;20273;-73
2023/03/13 07:45:23;;;;;;;2.07;1.10;;;16.20;99.90;;;;;;5013779;28;20194;-74
2023/03/13 07:47:48;;;;;;;3.67;1.60;;;16.20;99.90;;;;;;5013398;28;20233;-74
2023/03/13 07:50:14;;;;;;;5.77;1.23;;;16.30;99.90;;;;;;5030031;28;20182;-73
2023/03/13 07:52:40;;;;;;;2.33;1.20;;;16.40;99.90;;;;;;5012182;28;20181;-74
2023/03/13 07:55:07;;;;;;;1.70;1.10;;;16.50;99.90;;;;;;5013671;28;20655;-73
2023/03/13 07:57:32;;;;;;;2.80;1.13;;;16.60;99.90;;;;;;5013545;28;20609;-73
2023/03/13 07:59:59;;;;;;;3.30;1.20;;;16.70;99.90;;;;;;5013175;28;20588;-74
2023/03/13 08:02:25;;;;;;;3.70;0.80;;;16.70;99.90;;;;;;5012672;28;20182;-73
2023/03/13 08:04:51;;;;;;;2.70;1.00;;;16.80;99.90;;;;;;5012918;28;20630;-73
2023/03/13 08:07:17;;;;;;;3.20;1.30;;;16.90;99.90;;;;;;5013478;28;20666;-73
2023/03/13 08:09:43;;;;;;;4.20;1.10;;;16.90;99.90;;;;;;5012697;28;20628;-73
2023/03/13 08:12:09;;;;;;;2.43;1.17;;;16.90;99.90;;;;;;5012887;28;20643;-73
2023/03/13 08:14:34;;;;;;;1.57;0.77;;;17.00;99.90;;;;;;5012319;28;20178;-72
2023/03/13 08:17:00;;;;;;;1.70;1.00;;;17.00;99.90;;;;;;5012474;28;20771;-73
2023/03/13 08:19:26;;;;;;;2.13;0.90;;;17.00;99.90;;;;;;5013338;28;20618;-73
2023/03/13 08:21:51;;;;;;;4.17;1.13;;;17.00;99.90;;;;;;5011442;28;20206;-73
2023/03/13 08:24:17;;;;;;;2.07;1.50;;;17.00;99.90;;;;;;5013219;28;20178;-73
2023/03/13 08:26:43;;;;;;;2.50;1.10;;;17.00;99.90;;;;;;5011592;28;20213;-73
2023/03/13 08:29:11;;;;;;;3.17;1.20;;;17.00;99.90;;;;;;5011678;28;20176;-73
2023/03/13 08:31:42;;;;;;;2.90;1.07;;;17.00;99.90;;;;;;5012073;28;20178;-73
2023/03/13 08:34:09;;;;;;;3.33;1.00;;;17.00;99.90;;;;;;5009112;28;20589;-73
2023/03/13 08:36:36;;;;;;;2.20;1.20;;;17.10;99.90;;;;;;5011878;28;21298;-73
2023/03/13 08:39:11;;;;;;;4.90;1.57;;;17.00;99.90;;;;;;5027500;28;20593;-73
2023/03/13 08:41:39;;;;;;;4.67;1.17;;;17.00;99.90;;;;;;4995251;28;20712;-73
2023/03/13 08:44:06;;;;;;;4.80;1.50;;;17.00;99.90;;;;;;5011413;28;20643;-73
2023/03/13 08:46:34;;;;;;;2.30;1.07;;;16.90;99.90;;;;;;5012414;28;20675;-73
2023/03/13 08:49:00;;;;;;;2.70;1.13;;;17.00;99.90;;;;;;5012495;28;21019;-73
2023/03/13 08:51:27;;;;;;;2.93;1.30;;;16.90;99.90;;;;;;5012912;28;20581;-73
2023/03/13 08:53:57;;;;;;;3.40;1.23;;;16.90;99.90;;;;;;5010684;28;20585;-73
2023/03/13 08:56:29;;;;;;;2.80;1.10;;;16.90;99.90;;;;;;5011299;28;20625;-73
2023/03/13 08:58:59;;;;;;;6.00;1.53;;;16.80;99.90;;;;;;5010975;28;20668;-74
2023/03/13 09:01:31;;;;;;;2.00;1.00;;;16.80;99.90;;;;;;5012357;28;20589;-74
2023/03/13 09:03:57;;;;;;;3.77;1.23;;;16.90;99.90;;;;;;5011331;28;20585;-73
2023/03/13 09:06:23;;;;;;;1.80;0.90;;;16.80;99.90;;;;;;5010596;28;20653;-74
2023/03/13 09:08:48;;;;;;;3.00;0.90;;;16.80;99.90;;;;;;5012586;28;20672;-74
2023/03/13 09:11:19;;;;;;;2.03;0.90;;;16.80;99.90;;;;;;5010575;28;20232;-74
2023/03/13 09:13:48;;;;;;;2.00;0.83;;;16.80;99.90;;;;;;5012102;28;20170;-73
2023/03/13 09:16:20;;;;;;;2.87;1.00;;;16.90;99.90;;;;;;5010857;28;20616;-73
2023/03/13 09:18:47;;;;;;;3.83;0.90;;;16.90;99.90;;;;;;5012526;28;20647;-74
2023/03/13 09:21:15;;;;;;;4.53;1.10;;;16.90;99.90;;;;;;5010056;28;20701;-73
2023/03/13 09:23:41;;;;;;;2.50;0.90;;;17.00;99.90;;;;;;5011400;28;20577;-74
2023/03/13 09:26:08;;;;;;;1.87;0.80;;;17.00;99.90;;;;;;5009949;28;21479;-74
2023/03/13 09:28:34;;;;;;;2.63;1.00;;;17.10;99.90;;;;;;5011639;28;20186;-74
2023/03/13 09:31:10;;;;;;;3.23;1.00;;;17.00;99.90;;;;;;5012122;28;20592;-73
2023/03/13 09:33:37;;;;;;;1.60;0.80;;;17.10;99.90;;;;;;5011634;28;21142;-73
2023/03/13 09:36:03;;;;;;;3.23;0.80;;;17.10;99.90;;;;;;5010912;28;20724;-73
2023/03/13 09:38:29;;;;;;;2.73;0.93;;;17.20;99.90;;;;;;5009864;28;20601;-73
2023/03/13 09:41:16;;;;;;;2.03;0.80;;;17.20;99.90;;;;;;5010878;28;20926;-73
2023/03/13 09:44:05;;;;;;;2.03;0.80;;;17.20;99.90;;;;;;5010166;28;20600;-73
2023/03/13 09:46:46;;;;;;;3.10;0.80;;;17.20;99.90;;;;;;5010232;28;20659;-73
2023/03/13 09:49:24;;;;;;;2.77;0.80;;;17.30;99.90;;;;;;4993942;28;20960;-73
2023/03/13 09:51:57;;;;;;;3.70;0.90;;;17.40;99.90;;;;;;5011702;28;20931;-73
2023/03/13 09:54:27;;;;;;;2.23;0.87;;;17.40;99.90;;;;;;5009847;28;20716;-73
2023/03/13 09:57:04;;;;;;;2.57;0.90;;;17.50;99.90;;;;;;5010646;28;20629;-72
2023/03/13 09:59:38;;;;;;;1.87;0.77;;;17.50;99.90;;;;;;5005397;28;20593;-74
2023/03/13 10:02:19;;;;;;;5.47;0.80;;;17.50;99.90;;;;;;5008702;28;20609;-73
2023/03/13 10:04:50;;;;;;;2.07;0.80;;;17.60;99.90;;;;;;5010452;28;20597;-73
2023/03/13 10:07:16;;;;;;;2.37;0.80;;;17.60;99.90;;;;;;5009911;28;20687;-73
2023/03/13 10:09:42;;;;;;;2.37;1.67;;;17.70;99.90;;;;;;5008694;28;20624;-73
2023/03/13 10:12:14;;;;;;;2.73;0.67;;;17.70;99.90;;;;;;5004950;28;20174;-73
2023/03/13 10:15:02;;;;;;;4.13;1.00;;;17.80;99.90;;;;;;5018079;28;20596;-73
2023/03/13 10:17:38;;;;;;;2.13;0.60;;;17.90;99.90;;;;;;5010743;28;21005;-73
2023/03/13 10:20:23;;;;;;;1.87;0.80;;;18.10;99.90;;;;;;5008365;28;20616;-74
2023/03/13 10:23:30;;;;;;;1.90;0.70;;;18.20;99.90;;;;;;4995300;28;20616;-74
2023/03/13 10:25:56;;;;;;;1.90;0.70;;;18.30;99.90;;;;;;5003706;28;20652;-74
2023/03/13 10:28:22;;;;;;;1.77;0.70;;;18.60;99.90;;;;;;5009449;28;20586;-75
2023/03/13 10:30:53;;;;;;;1.30;0.50;;;18.70;99.90;;;;;;5011829;28;20174;-74
2023/03/13 10:33:24;;;;;;;1.77;0.67;;;19.00;99.90;;;;;;4992436;28;20205;-74
2023/03/13 10:36:11;;;;;;;1.40;0.70;;;19.30;99.90;;;;;;5006853;28;20709;-74
2023/03/13 10:39:06;;;;;;;1.20;0.60;;;19.60;99.90;;;;;;5000951;28;20655;-74
2023/03/13 10:41:37;;;;;;;2.50;0.67;;;20.00;99.90;;;;;;5008720;28;20621;-73
2023/03/13 10:44:15;;;;;;;1.57;0.60;;;20.40;99.90;;;;;;5009984;28;20581;-73
2023/03/13 10:46:43;;;;;;;3.87;0.50;;;20.60;99.90;;;;;;5010685;28;20747;-73
2023/03/13 10:49:18;;;;;;;2.50;0.50;;;20.80;99.90;;;;;;5009978;28;20593;-73
2023/03/13 10:51:50;;;;;;;1.17;0.40;;;20.90;99.90;;;;;;5007460;28;20589;-73
2023/03/13 10:54:30;;;;;;;1.70;0.60;;;21.20;99.90;;;;;;5009803;28;20589;-72
2023/03/13 10:57:17;;;;;;;1.70;0.60;;;21.50;99.90;;;;;;5009420;28;20621;-73
2023/03/13 10:59:45;;;;;;;1.23;0.50;;;21.90;99.90;;;;;;5009727;28;21163;-73
2023/03/13 11:02:30;;;;;;;2.77;0.67;;;22.20;99.90;;;;;;5009076;28;20628;-73
2023/03/13 11:04:58;;;;;;;4.07;0.70;;;22.40;99.90;;;;;;5004496;28;20625;-73
2023/03/13 11:07:34;;;;;;;2.47;0.73;;;22.70;99.90;;;;;;5006615;28;20740;-73
2023/03/13 11:10:20;;;;;;;1.40;0.60;;;23.00;99.90;;;;;;5006977;28;20945;-73
2023/03/13 11:12:51;;;;;;;3.10;0.50;;;23.10;99.90;;;;;;5007939;28;21356;-73
2023/03/13 11:15:38;;;;;;;1.57;0.50;;;23.10;99.90;;;;;;5010895;28;20585;-74
2023/03/13 11:18:30;;;;;;;1.40;0.40;;;23.20;99.90;;;;;;4992531;28;20620;-73
2023/03/13 11:20:57;;;;;;;1.20;0.40;;;23.30;99.90;;;;;;5004012;28;20596;-73
2023/03/13 11:23:32;;;;;;;1.20;0.43;;;23.30;99.90;;;;;;5008973;28;21133;-73
2023/03/13 11:26:19;;;;;;;1.20;0.40;;;23.30;99.90;;;;;;4991310;28;20636;-73
2023/03/13 11:29:12;;;;;;;1.20;0.40;;;23.20;99.90;;;;;;5002662;28;20630;-74
2023/03/13 11:31:47;;;;;;;1.60;0.40;;;23.20;99.90;;;;;;5008765;28;20585;-74
2023/03/13 11:34:26;;;;;;;1.20;0.40;;;23.30;99.90;;;;;;5009243;28;21230;-74
2023/03/13 11:37:01;;;;;;;1.30;0.50;;;23.50;99.90;;;;;;5009987;28;20604;-73
2023/03/13 11:39:45;;;;;;;1.20;0.40;;;23.70;99.90;;;;;;5025864;28;20944;-73
2023/03/13 11:42:29;;;;;;;1.30;0.40;;;23.90;99.90;;;;;;5008033;28;20592;-73
2023/03/13 11:45:32;;;;;;;1.10;0.40;;;24.10;99.90;;;;;;5010361;28;21012;-73
2023/03/13 11:48:30;;;;;;;1.30;0.50;;;24.10;99.90;;;;;;5011667;28;20655;-77
2023/03/13 11:51:27;;;;;;;1.33;0.40;;;24.00;99.90;;;;;;5008356;28;20632;-77
2023/03/13 11:54:24;;;;;;;1.40;0.40;;;24.00;99.90;;;;;;5001217;28;20589;-77
2023/03/13 11:56:56;;;;;;;1.40;0.50;;;24.10;99.90;;;;;;4993016;28;20606;-78
2023/03/13 11:59:31;;;;;;;1.30;0.40;;;24.30;99.90;;;;;;5009835;28;20625;-77
2023/03/13 12:02:16;;;;;;;1.23;0.50;;;24.30;99.90;;;;;;5009003;28;20670;-77
2023/03/13 12:04:54;;;;;;;1.20;0.40;;;24.20;99.90;;;;;;5012239;28;20592;-77
2023/03/13 12:07:35;;;;;;;1.10;0.40;;;24.10;99.90;;;;;;5013248;28;20722;-78
2023/03/13 12:10:08;;;;;;;1.20;0.40;;;23.90;99.90;;;;;;5013313;28;20592;-79
2023/03/13 12:13:01;;;;;;;1.20;0.40;;;23.60;99.90;;;;;;5013272;28;20609;-78
2023/03/13 12:15:31;;;;;;;1.20;0.40;;;23.30;99.90;;;;;;5012134;28;20671;-78
2023/03/13 12:18:23;;;;;;;2.03;0.40;;;23.00;99.90;;;;;;5012365;28;20625;-78
2023/03/13 12:20:57;;;;;;;1.23;0.40;;;22.70;99.90;;;;;;5010106;28;20702;-78
2023/03/13 12:23:44;;;;;;;1.50;0.50;;;22.40;99.90;;;;;;5012036;28;20589;-78
2023/03/13 12:26:15;;;;;;;1.87;0.50;;;22.30;99.90;;;;;;5028163;28;20659;-77
2023/03/13 12:28:46;;;;;;;1.10;0.40;;;22.30;99.90;;;;;;5012334;28;20590;-77
2023/03/13 12:31:25;;;;;;;1.50;0.80;;;22.20;99.90;;;;;;5012674;28;20957;-77
2023/03/13 12:34:18;;;;;;;1.40;0.50;;;22.20;99.90;;;;;;5012025;28;20619;-77
2023/03/13 12:36:51;;;;;;;2.20;1.10;;;22.20;99.90;;;;;;5011336;28;20640;-79
2023/03/13 12:39:48;;;;;;;2.17;0.90;;;22.30;99.90;;;;;;5011226;28;20966;-78
2023/03/13 12:42:39;;;;;;;1.60;0.70;;;22.40;99.90;;;;;;4993499;28;20617;-78
2023/03/13 12:45:07;;;;;;;1.27;0.50;;;22.40;99.90;;;;;;5034441;28;20647;-78
2023/03/13 12:47:41;;;;;;;1.20;0.50;;;22.40;99.90;;;;;;5011227;28;20676;-78
2023/03/13 12:50:22;;;;;;;1.30;0.50;;;22.30;99.90;;;;;;5013175;28;20599;-78
2023/03/13 12:53:29;;;;;;;1.20;0.40;;;22.30;99.90;;;;;;4993612;28;20612;-78
2023/03/13 12:56:16;;;;;;;1.30;0.43;;;22.20;99.90;;;;;;4917127;29;21046;-77
2023/03/13 12:58:50;;;;;;;1.40;0.40;;;22.20;99.90;;;;;;4915807;29;20593;-78
2023/03/13 13:01:40;;;;;;;1.53;0.40;;;22.10;99.90;;;;;;4974334;28;20585;-78
2023/03/13 13:04:14;;;;;;;1.50;0.50;;;21.90;99.90;;;;;;4983330;28;20645;-78
2023/03/13 13:07:02;;;;;;;2.27;0.50;;;21.90;99.90;;;;;;4991498;28;20657;-78
2023/03/13 13:10:15;;;;;;;1.30;0.50;;;21.80;99.90;;;;;;4981307;28;20646;-79
2023/03/13 13:12:44;;;;;;;1.40;0.50;;;21.70;99.90;;;;;;4988403;28;20624;-79
2023/03/13 13:15:23;;;;;;;2.23;0.50;;;21.60;99.90;;;;;;5012688;28;20565;-78
2023/03/13 13:18:00;;;;;;;1.20;0.50;;;21.50;99.90;;;;;;5010489;28;21270;-78